Time;durP1;ratioP1;P1;durP2;ratioP2;P2;SDS_P1;SDS_P2;PMS_P1;PMS_P2;Temp;Humidity;BMP_temperature;BMP_pressure;BME280_temperature;BME280_humidity;BME280_pressure;Samples;Min_cycle;Max_cycle;Signal;HPM_P1;HPM_P2
2022/11/03 00:01:14;;;;;;;40.07;37.33;;;;;;;7.28;100.00;101493.31;5013652;28;20842;-47
2022/11/03 00:03:43;;;;;;;40.57;37.63;;;;;;;7.30;100.00;101487.84;5014359;28;20519;-45
2022/11/03 00:06:11;;;;;;;41.40;38.57;;;;;;;7.30;100.00;101488.69;5013990;28;20430;-48
2022/11/03 00:08:40;;;;;;;39.60;37.20;;;;;;;7.30;100.00;101483.38;5013335;28;20465;-46
2022/11/03 00:11:11;;;;;;;40.93;38.07;;;;;;;7.32;100.00;101483.22;5013508;28;20507;-47
2022/11/03 00:13:41;;;;;;;40.70;37.67;;;;;;;7.33;100.00;101477.75;5013711;28;20457;-45
2022/11/03 00:16:10;;;;;;;44.07;40.40;;;;;;;7.32;100.00;101468.13;5013949;28;20429;-45
2022/11/03 00:18:38;;;;;;;41.83;39.00;;;;;;;7.34;100.00;101468.81;5013170;28;20468;-45
2022/11/03 00:21:09;;;;;;;41.40;38.50;;;;;;;7.35;100.00;101461.69;5008358;28;20434;-47
2022/11/03 00:23:39;;;;;;;42.90;40.20;;;;;;;7.35;100.00;101457.19;5017299;28;20857;-48
2022/11/03 00:26:08;;;;;;;42.90;39.90;;;;;;;7.37;100.00;101465.00;5033041;28;20471;-45
2022/11/03 00:28:37;;;;;;;40.43;38.00;;;;;;;7.39;100.00;101461.19;5032622;28;20995;-46
2022/11/03 00:31:09;;;;;;;42.03;39.33;;;;;;;7.40;100.00;101456.72;5032887;28;21055;-44
2022/11/03 00:33:38;;;;;;;43.27;40.30;;;;;;;7.42;100.00;101452.09;5032885;28;20526;-47
2022/11/03 00:36:10;;;;;;;43.20;40.37;;;;;;;7.43;100.00;101448.47;5033053;28;20494;-44
2022/11/03 00:38:38;;;;;;;40.97;38.40;;;;;;;7.44;100.00;101442.13;5032397;28;20460;-46
2022/11/03 00:41:06;;;;;;;39.70;37.10;;;;;;;7.45;100.00;101447.31;5032681;28;20926;-47
2022/11/03 00:43:35;;;;;;;39.77;37.00;;;;;;;7.46;100.00;101442.84;5032893;28;20796;-49
2022/11/03 00:46:04;;;;;;;40.90;37.83;;;;;;;7.45;100.00;101442.00;5032403;28;20502;-47
2022/11/03 00:48:32;;;;;;;39.97;37.40;;;;;;;7.46;100.00;101430.41;5032382;28;20464;-46
2022/11/03 00:51:09;;;;;;;40.00;37.27;;;;;;;7.49;100.00;101435.38;5032546;28;20436;-47
2022/11/03 00:53:38;;;;;;;39.50;36.70;;;;;;;7.50;100.00;101430.88;5032959;28;20460;-45
2022/11/03 00:56:09;;;;;;;40.90;37.83;;;;;;;7.51;100.00;101429.91;5032834;28;20821;-50
2022/11/03 00:58:36;;;;;;;40.10;37.20;;;;;;;7.53;100.00;101433.22;5032166;28;20865;-46
2022/11/03 01:01:07;;;;;;;42.10;39.30;;;;;;;7.52;100.00;101421.81;5032362;28;20432;-44
2022/11/03 01:03:38;;;;;;;42.77;39.87;;;;;;;7.55;100.00;101412.69;5032385;28;20466;-45
2022/11/03 01:08:54;;;;;;;40.07;37.50;;;;;;;7.57;100.00;101411.53;5032069;28;20522;-46
2022/11/03 01:14:11;;;;;;;43.17;39.97;;;;;;;7.59;100.00;101392.78;5032433;28;20933;-46
2022/11/03 01:16:38;;;;;;;42.17;39.20;;;;;;;7.60;100.00;101392.63;5032520;28;20428;-46
2022/11/03 01:19:06;;;;;;;41.80;38.80;;;;;;;7.60;100.00;101386.47;5031911;28;20459;-50
2022/11/03 01:21:34;;;;;;;41.60;38.77;;;;;;;7.61;100.00;101377.53;5023757;28;20433;-47
2022/11/03 01:24:05;;;;;;;42.37;39.60;;;;;;;7.62;100.00;101382.66;5027587;28;21010;-48
2022/11/03 01:26:32;;;;;;;42.30;39.00;;;;;;;7.62;100.00;101387.97;5031945;28;20480;-49
2022/11/03 01:29:00;;;;;;;42.10;38.80;;;;;;;7.63;100.00;101375.53;5031646;28;20586;-47
2022/11/03 01:31:28;;;;;;;40.77;38.10;;;;;;;7.65;100.00;101384.16;5031752;28;20478;-47
2022/11/03 01:33:57;;;;;;;41.40;38.43;;;;;;;7.65;100.00;101368.22;5032108;28;20432;-46
2022/11/03 01:36:25;;;;;;;42.33;39.13;;;;;;;7.67;100.00;101374.22;5032018;28;20432;-48
2022/11/03 01:38:54;;;;;;;39.43;37.00;;;;;;;7.67;100.00;101363.63;5031434;28;20472;-45
2022/11/03 01:41:25;;;;;;;39.57;37.27;;;;;;;7.69;100.00;101367.75;5031437;28;20460;-47
2022/11/03 01:44:25;;;;;;;40.17;36.83;;;;;;;7.71;100.00;101354.31;5032119;28;20436;-47
2022/11/03 01:46:55;;;;;;;41.30;38.20;;;;;;;7.71;100.00;101357.81;5032222;28;20984;-46
2022/11/03 01:49:27;;;;;;;41.03;37.93;;;;;;;7.72;100.00;101358.63;5031248;28;20460;-46
2022/11/03 01:52:00;;;;;;;41.30;38.70;;;;;;;7.72;100.00;101354.16;5031833;28;20523;-44
2022/11/03 01:54:29;;;;;;;41.27;38.50;;;;;;;7.73;100.00;101353.19;5031925;28;20436;-48
2022/11/03 01:56:59;;;;;;;40.00;37.10;;;;;;;7.76;100.00;101354.69;5030947;28;20428;-45
2022/11/03 01:59:28;;;;;;;40.33;37.60;;;;;;;7.78;100.00;101344.72;5031254;28;21059;-45
2022/11/03 02:01:55;;;;;;;40.43;37.63;;;;;;;7.79;100.00;101349.84;5031345;28;20456;-44
2022/11/03 02:04:28;;;;;;;42.13;38.27;;;;;;;7.82;100.00;101343.41;5031593;28;20439;-46
2022/11/03 02:07:06;;;;;;;41.90;38.90;;;;;;;7.84;100.00;101348.53;5031658;28;20498;-47
2022/11/03 02:09:33;;;;;;;41.30;38.20;;;;;;;7.85;100.00;101342.25;5031027;28;21038;-47
2022/11/03 02:12:08;;;;;;;40.40;37.97;;;;;;;7.86;100.00;101343.88;5031313;28;20460;-46
2022/11/03 02:14:42;;;;;;;41.37;38.87;;;;;;;7.87;100.00;101340.25;5031699;28;20444;-45
2022/11/03 02:17:13;;;;;;;41.07;38.20;;;;;;;7.88;100.00;101342.75;5031485;28;20424;-48
2022/11/03 02:19:46;;;;;;;41.13;38.33;;;;;;;7.91;100.00;101336.28;5030090;28;20460;-46
2022/11/03 02:22:41;;;;;;;40.10;37.70;;;;;;;7.92;100.00;101329.94;5019888;28;20974;-47
2022/11/03 02:25:17;;;;;;;40.13;37.23;;;;;;;7.93;100.00;101324.47;5031304;28;20490;-46
2022/11/03 02:27:46;;;;;;;40.10;37.13;;;;;;;7.95;100.00;101330.44;5031129;28;20451;-47
2022/11/03 02:30:14;;;;;;;40.70;37.90;;;;;;;7.98;100.00;101321.31;5031518;28;20467;-46
2022/11/03 02:32:50;;;;;;;42.07;39.00;;;;;;;7.98;100.00;101322.16;5031148;28;20559;-45
2022/11/03 02:35:24;;;;;;;41.53;39.03;;;;;;;8.00;100.00;101330.81;5031341;28;20423;-46
2022/11/03 02:37:56;;;;;;;42.13;39.43;;;;;;;8.01;100.00;101313.84;5031038;28;20456;-48
2022/11/03 02:40:27;;;;;;;40.23;37.53;;;;;;;8.05;100.00;101319.66;5031446;28;20845;-48
2022/11/03 02:42:59;;;;;;;40.33;37.80;;;;;;;8.06;100.00;101311.56;5031542;28;20514;-50
2022/11/03 02:45:28;;;;;;;40.27;37.40;;;;;;;8.07;100.00;101313.19;5031274;28;20472;-48
2022/11/03 02:47:59;;;;;;;40.20;37.20;;;;;;;8.09;100.00;101308.56;5030681;28;20459;-52
2022/11/03 02:50:28;;;;;;;40.67;38.07;;;;;;;8.12;100.00;101304.75;5031558;28;20432;-49
2022/11/03 02:52:56;;;;;;;40.00;37.20;;;;;;;8.12;100.00;101318.81;5030923;28;21042;-47
2022/11/03 02:55:33;;;;;;;38.73;36.50;;;;;;;8.13;100.00;101309.03;5031278;28;20432;-48
2022/11/03 02:58:08;;;;;;;38.63;36.10;;;;;;;8.13;100.00;101299.25;5030917;28;20452;-46
2022/11/03 03:00:43;;;;;;;40.00;37.50;;;;;;;8.12;100.00;101291.44;5031123;28;20974;-51
2022/11/03 03:03:17;;;;;;;40.60;37.60;;;;;;;8.12;100.00;101278.16;5031245;28;21232;-48
2022/11/03 03:05:47;;;;;;;39.63;37.00;;;;;;;8.10;100.00;101264.22;5031232;28;20471;-49
2022/11/03 03:08:16;;;;;;;40.63;38.03;;;;;;;8.08;100.00;101242.31;5032230;28;20490;-47
2022/11/03 03:10:46;;;;;;;39.73;37.20;;;;;;;8.07;100.00;101248.59;5034388;28;20444;-47
2022/11/03 03:13:19;;;;;;;39.80;37.20;;;;;;;8.05;100.00;101250.59;5034829;28;20845;-46
2022/11/03 03:15:52;;;;;;;40.23;37.73;;;;;;;8.03;100.00;101245.47;5034938;28;20459;-46
2022/11/03 03:18:26;;;;;;;40.53;37.83;;;;;;;8.00;100.00;101245.81;5034303;28;20463;-45
2022/11/03 03:20:58;;;;;;;42.60;39.73;;;;;;;7.99;100.00;101246.81;5029198;28;20482;-45
2022/11/03 03:23:31;;;;;;;41.60;38.30;;;;;;;8.00;100.00;101245.81;5026048;28;20460;-45
2022/11/03 03:26:02;;;;;;;41.20;38.43;;;;;;;7.97;100.00;101242.66;5034538;28;20472;-47
2022/11/03 03:28:36;;;;;;;39.30;36.90;;;;;;;7.95;100.00;101242.81;5034129;28;20456;-47
2022/11/03 03:31:08;;;;;;;41.00;38.30;;;;;;;7.94;100.00;101256.28;5034100;28;20498;-45
2022/11/03 03:33:37;;;;;;;40.70;38.00;;;;;;;7.94;100.00;101261.59;5034057;28;20868;-46
2022/11/03 03:36:19;;;;;;;41.20;38.43;;;;;;;7.92;100.00;101252.94;5034599;28;20524;-47
2022/11/03 03:38:54;;;;;;;40.27;37.87;;;;;;;7.93;100.00;101254.59;5034041;28;20464;-47
2022/11/03 03:41:23;;;;;;;39.57;37.20;;;;;;;7.91;100.00;101270.72;5033879;28;20416;-44
2022/11/03 03:43:55;;;;;;;40.07;37.57;;;;;;;7.90;100.00;101268.22;5034218;28;20490;-49
2022/11/03 03:46:26;;;;;;;39.50;36.43;;;;;;;7.87;100.00;101258.75;5033941;28;20472;-50
2022/11/03 03:48:54;;;;;;;38.93;36.80;;;;;;;7.87;100.00;101260.56;5033697;28;20514;-48
2022/11/03 03:51:25;;;;;;;40.57;38.17;;;;;;;7.87;100.00;101250.78;5033890;28;20428;-47
2022/11/03 03:53:54;;;;;;;41.60;38.20;;;;;;;7.87;100.00;101247.31;5034030;28;20440;-45
2022/11/03 03:56:27;;;;;;;40.57;38.17;;;;;;;7.86;100.00;101254.44;5034213;28;20791;-45
2022/11/03 03:58:56;;;;;;;39.60;37.50;;;;;;;7.86;100.00;101242.97;5033488;28;20471;-51
2022/11/03 04:01:23;;;;;;;39.93;37.00;;;;;;;7.86;100.00;101238.50;5033712;28;20432;-49
2022/11/03 04:03:51;;;;;;;39.17;36.80;;;;;;;7.85;100.00;101231.53;5033949;28;20436;-45
2022/11/03 04:06:18;;;;;;;39.83;36.93;;;;;;;7.84;100.00;101227.22;5033791;28;20880;-45
2022/11/03 04:08:46;;;;;;;38.03;35.73;;;;;;;7.85;100.00;101246.66;5033230;28;20459;-46
2022/11/03 04:22:27;;;;;;;41.20;38.77;;;;;;;7.80;100.00;101228.53;5023556;28;20927;-45
2022/11/03 04:24:55;;;;;;;39.80;37.50;;;;;;;7.78;100.00;101227.88;5033461;28;20436;-46
2022/11/03 04:27:29;;;;;;;41.83;39.27;;;;;;;7.75;100.00;101231.72;5032835;28;20542;-50
2022/11/03 04:30:02;;;;;;;42.50;39.10;;;;;;;7.73;100.00;101230.22;5033414;28;20432;-48
2022/11/03 04:32:30;;;;;;;40.30;37.93;;;;;;;7.70;100.00;101219.94;5032982;28;20873;-45
2022/11/03 04:34:59;;;;;;;41.90;39.10;;;;;;;7.68;100.00;101212.13;5033257;28;20483;-49
2022/11/03 04:37:28;;;;;;;42.27;39.50;;;;;;;7.67;100.00;101220.28;5032721;28;20856;-46
2022/11/03 04:39:59;;;;;;;41.43;39.03;;;;;;;7.66;100.00;101218.59;5033204;28;20482;-46
2022/11/03 04:42:31;;;;;;;42.80;39.77;;;;;;;7.62;100.00;101211.94;5032732;28;20444;-50
2022/11/03 04:45:02;;;;;;;41.80;38.97;;;;;;;7.62;100.00;101214.59;5033396;28;20825;-51
2022/11/03 04:47:30;;;;;;;41.30;38.67;;;;;;;7.61;100.00;101210.31;5032572;28;20475;-45
2022/11/03 04:49:59;;;;;;;39.77;37.47;;;;;;;7.59;100.00;101204.31;5032848;28;20490;-47
2022/11/03 04:52:27;;;;;;;40.77;38.40;;;;;;;7.61;100.00;101199.69;5032739;28;20456;-48
2022/11/03 04:54:54;;;;;;;41.57;38.80;;;;;;;7.59;100.00;101202.50;5032939;28;20493;-49
2022/11/03 04:57:22;;;;;;;43.20;39.60;;;;;;;7.59;100.00;101204.31;5032499;28;20431;-47
2022/11/03 04:59:50;;;;;;;42.03;39.30;;;;;;;7.58;100.00;101202.69;5033003;28;20436;-46
2022/11/03 05:02:21;;;;;;;40.43;38.20;;;;;;;7.57;100.00;101196.53;5032532;28;20844;-48
2022/11/03 05:04:48;;;;;;;40.30;37.90;;;;;;;7.56;100.00;101194.88;5032793;28;20438;-47
2022/11/03 05:07:28;;;;;;;42.10;39.30;;;;;;;7.56;100.00;101189.56;5032386;28;20873;-45
2022/11/03 05:09:56;;;;;;;41.37;38.43;;;;;;;7.55;100.00;101195.06;5032542;28;20448;-48
2022/11/03 05:12:23;;;;;;;42.27;39.33;;;;;;;7.54;100.00;101185.41;5032355;28;20453;-47
2022/11/03 05:14:52;;;;;;;40.73;38.17;;;;;;;7.53;100.00;101175.78;5032375;28;20980;-48
2022/11/03 05:17:28;;;;;;;39.60;37.10;;;;;;;7.54;100.00;101174.81;5031988;28;20520;-50
2022/11/03 05:19:59;;;;;;;41.10;38.63;;;;;;;7.53;100.00;101173.13;5029405;28;20437;-49
2022/11/03 05:22:33;;;;;;;40.07;37.60;;;;;;;7.51;100.00;101169.81;5022760;28;20453;-46
2022/11/03 05:25:22;;;;;;;41.70;38.40;;;;;;;7.51;100.00;101169.81;5032390;28;20498;-46
2022/11/03 05:27:50;;;;;;;41.07;38.63;;;;;;;7.50;100.00;101169.00;5031716;28;20479;-46
2022/11/03 05:30:17;;;;;;;41.53;38.83;;;;;;;7.50;100.00;101169.00;5031987;28;20853;-48
2022/11/03 05:32:46;;;;;;;41.13;38.47;;;;;;;7.49;100.00;101167.34;5031901;28;20526;-46
2022/11/03 05:35:21;;;;;;;39.60;37.10;;;;;;;7.50;100.00;101166.34;5031956;28;20913;-48
2022/11/03 05:37:50;;;;;;;42.20;39.30;;;;;;;7.50;100.00;101157.53;5031716;28;20463;-45
2022/11/03 05:40:22;;;;;;;40.23;37.20;;;;;;;7.50;100.00;101149.59;5031935;28;21011;-47
2022/11/03 05:42:53;;;;;;;41.57;38.83;;;;;;;7.52;100.00;101151.09;5031776;28;20460;-46
2022/11/03 05:45:24;;;;;;;40.60;38.03;;;;;;;7.53;100.00;101152.75;5032074;28;20829;-45
2022/11/03 05:47:55;;;;;;;40.30;37.77;;;;;;;7.54;100.00;101150.91;5031573;28;20522;-50
2022/11/03 05:50:24;;;;;;;40.80;38.03;;;;;;;7.55;100.00;101139.31;5032043;28;20478;-46
2022/11/03 05:52:56;;;;;;;42.63;39.70;;;;;;;7.57;100.00;101135.50;5031751;28;20460;-46
2022/11/03 05:55:27;;;;;;;40.20;37.33;;;;;;;7.58;100.00;101134.50;5031711;28;20429;-45
2022/11/03 05:57:57;;;;;;;41.37;38.80;;;;;;;7.60;100.00;101139.63;5031377;28;20456;-50
2022/11/03 06:00:28;;;;;;;39.93;37.50;;;;;;;7.62;100.00;101134.97;5031888;28;20432;-45
2022/11/03 06:02:58;;;;;;;40.70;38.20;;;;;;;7.63;100.00;101141.97;5031589;28;20464;-48
2022/11/03 06:05:27;;;;;;;40.00;37.30;;;;;;;7.65;100.00;101137.31;5031642;28;20428;-47
2022/11/03 06:07:57;;;;;;;40.50;37.90;;;;;;;7.66;100.00;101141.63;5030887;28;20460;-49
2022/11/03 06:10:27;;;;;;;40.83;38.07;;;;;;;7.68;100.00;101134.31;5031653;28;20489;-45
2022/11/03 06:12:59;;;;;;;41.80;39.20;;;;;;;7.69;100.00;101133.31;5031520;28;20460;-50
2022/11/03 06:15:30;;;;;;;42.83;40.23;;;;;;;7.70;100.00;101133.16;5031706;28;20494;-49
2022/11/03 06:18:02;;;;;;;41.87;39.17;;;;;;;7.72;100.00;101147.09;5031275;28;20537;-45
2022/11/03 06:20:30;;;;;;;41.80;39.20;;;;;;;7.72;100.00;101141.78;5026312;28;20839;-48
2022/11/03 06:22:57;;;;;;;40.47;38.27;;;;;;;7.71;100.00;101137.47;5023318;28;20853;-47
2022/11/03 06:25:29;;;;;;;40.80;38.60;;;;;;;7.74;100.00;101133.63;5031255;28;20942;-47
2022/11/03 06:28:02;;;;;;;43.77;40.37;;;;;;;7.78;100.00;101137.63;5031062;28;20468;-46
2022/11/03 06:30:32;;;;;;;40.37;37.53;;;;;;;7.77;100.00;101135.94;5031433;28;20428;-47
2022/11/03 06:33:09;;;;;;;42.43;39.33;;;;;;;7.79;100.00;101129.47;5031164;28;20468;-46
2022/11/03 06:35:37;;;;;;;41.27;38.10;;;;;;;7.82;100.00;101141.59;5031681;28;20838;-47
2022/11/03 06:38:12;;;;;;;41.73;38.83;;;;;;;7.84;100.00;101142.25;5030795;28;20993;-48
2022/11/03 06:40:40;;;;;;;42.70;39.70;;;;;;;7.87;100.00;101143.75;5031387;28;20431;-47
2022/11/03 06:43:27;;;;;;;41.90;39.00;;;;;;;7.89;100.00;101136.44;5032671;28;20456;-46
2022/11/03 06:45:57;;;;;;;45.00;41.90;;;;;;;7.92;100.00;101128.13;5035137;28;20507;-48
2022/11/03 06:48:28;;;;;;;42.80;39.50;;;;;;;7.92;100.00;101128.13;5034715;28;20471;-46
2022/11/03 06:50:58;;;;;;;41.53;38.77;;;;;;;7.94;100.00;101128.81;5035043;28;20848;-46
2022/11/03 06:53:29;;;;;;;40.10;37.40;;;;;;;7.97;100.00;101123.16;5035222;28;20506;-47
2022/11/03 06:55:57;;;;;;;40.53;37.90;;;;;;;8.01;100.00;101119.97;5034949;28;20428;-48
2022/11/03 06:58:28;;;;;;;40.40;37.60;;;;;;;8.06;100.00;101119.47;5034832;28;20460;-46
2022/11/03 07:00:58;;;;;;;39.87;37.37;;;;;;;8.09;100.00;101117.31;5035185;28;20431;-53
2022/11/03 07:03:34;;;;;;;41.27;38.37;;;;;;;8.13;100.00;101118.59;5034804;28;20988;-46
2022/11/03 07:06:05;;;;;;;42.03;38.87;;;;;;;8.19;100.00;101122.41;5034799;28;20862;-48
2022/11/03 07:08:37;;;;;;;40.57;38.27;;;;;;;8.24;100.00;101123.53;5034423;28;20522;-50
2022/11/03 07:11:14;;;;;;;42.53;39.87;;;;;;;8.29;100.00;101123.91;5034747;28;20428;-47
2022/11/03 07:13:42;;;;;;;40.33;37.50;;;;;;;8.34;100.00;101123.38;5034723;28;20533;-53
2022/11/03 07:16:13;;;;;;;40.43;38.17;;;;;;;8.38;100.00;101126.50;5034627;28;20440;-51
2022/11/03 07:18:47;;;;;;;41.33;38.53;;;;;;;8.42;100.00;101125.19;5033957;28;20830;-49
2022/11/03 07:21:31;;;;;;;40.23;37.93;;;;;;;8.47;100.00;101123.66;5028994;28;20775;-46
2022/11/03 07:24:01;;;;;;;38.97;36.77;;;;;;;8.52;100.00;101123.13;5029454;28;20490;-50
2022/11/03 07:26:29;;;;;;;39.20;37.00;;;;;;;8.55;100.00;101123.59;5034683;28;20482;-45
2022/11/03 07:28:56;;;;;;;39.10;36.60;;;;;;;8.61;100.00;101122.06;5033925;28;20876;-50
2022/11/03 07:31:26;;;;;;;39.27;36.57;;;;;;;8.65;100.00;101118.06;5034141;28;20844;-45
2022/11/03 07:33:58;;;;;;;40.63;37.77;;;;;;;8.70;100.00;101110.38;5034623;28;20432;-45
2022/11/03 07:36:30;;;;;;;40.20;37.97;;;;;;;8.77;100.00;101111.34;5034371;28;20432;-45
2022/11/03 07:39:01;;;;;;;39.77;37.27;;;;;;;8.79;100.00;101106.69;5033835;28;20542;-45
2022/11/03 07:41:32;;;;;;;40.70;38.13;;;;;;;8.88;100.00;101108.28;5033888;28;20894;-49
2022/11/03 07:44:02;;;;;;;41.90;39.50;;;;;;;8.93;100.00;101100.59;5034156;28;20433;-45
2022/11/03 07:46:29;;;;;;;42.10;39.37;;;;;;;8.98;100.00;101100.06;5034493;28;20489;-47
2022/11/03 07:49:01;;;;;;;40.70;38.30;;;;;;;9.03;100.00;101100.34;5033511;28;20472;-51
2022/11/03 07:51:31;;;;;;;41.10;38.50;;;;;;;9.10;100.00;101106.63;5033577;28;20486;-49
2022/11/03 07:54:03;;;;;;;40.10;37.50;;;;;;;9.16;100.00;101092.63;5033006;28;20439;-50
2022/11/03 07:56:35;;;;;;;40.50;37.60;;;;;;;9.23;100.00;101102.34;5033900;28;20490;-47
2022/11/03 07:59:11;;;;;;;39.73;37.27;;;;;;;9.30;100.00;101087.34;5033422;28;20506;-47
2022/11/03 08:01:42;;;;;;;39.90;37.60;;;;;;;9.33;100.00;101092.31;5033647;28;21235;-47
2022/11/03 08:04:16;;;;;;;39.60;36.70;;;;;;;9.38;100.00;101091.75;5033808;28;20486;-51
2022/11/03 08:06:44;;;;;;;40.73;37.97;;;;;;;9.43;100.00;101082.25;5033590;28;20428;-47
2022/11/03 08:09:11;;;;;;;40.03;37.23;;;;;;;9.49;100.00;101080.69;5033117;28;20476;-48
2022/11/03 08:11:39;;;;;;;40.87;38.47;;;;;;;9.55;100.00;101069.31;5033426;28;20614;-47
2022/11/03 08:14:06;;;;;;;40.53;37.93;;;;;;;9.62;100.00;101062.22;5033684;28;20436;-47
2022/11/03 08:16:34;;;;;;;39.53;36.83;;;;;;;9.69;100.00;101051.69;5033404;28;20964;-47
2022/11/03 08:19:01;;;;;;;39.93;37.03;;;;;;;9.79;100.00;101054.91;5033037;28;20530;-48
2022/11/03 08:21:30;;;;;;;38.90;36.40;;;;;;;9.86;100.00;101045.97;5025474;28;20468;-47
2022/11/03 08:23:58;;;;;;;39.33;36.70;;;;;;;9.91;100.00;101048.94;5028305;28;20491;-50
2022/11/03 08:26:26;;;;;;;40.00;37.50;;;;;;;9.95;100.00;101052.88;5033307;28;20490;-53
2022/11/03 08:28:53;;;;;;;38.90;36.70;;;;;;;10.02;100.00;101058.28;5032798;28;20476;-47
2022/11/03 08:31:21;;;;;;;39.83;37.23;;;;;;;10.13;100.00;101049.84;5032865;28;20493;-48
2022/11/03 08:33:48;;;;;;;39.40;36.80;;;;;;;10.26;100.00;101047.34;5033311;28;20447;-47
2022/11/03 08:36:16;;;;;;;38.07;35.77;;;;;;;10.31;100.00;101047.59;5033339;28;20502;-48
2022/11/03 08:38:45;;;;;;;39.77;36.90;;;;;;;10.42;100.00;101041.78;5032836;28;20456;-45
2022/11/03 08:41:13;;;;;;;38.63;36.23;;;;;;;10.54;100.00;101032.28;5032913;28;20440;-47
2022/11/03 08:43:40;;;;;;;37.60;35.63;;;;;;;10.55;100.00;101033.94;5032965;28;20514;-48
2022/11/03 08:46:08;;;;;;;37.80;35.70;;;;;;;10.65;100.00;101030.97;5032725;28;20510;-49
2022/11/03 08:48:44;;;;;;;41.10;38.30;;;;;;;10.74;100.00;101029.81;5032627;28;20862;-47
2022/11/03 08:51:13;;;;;;;38.13;36.00;;;;;;;10.85;100.00;101029.31;5032835;28;20436;-46
2022/11/03 08:53:42;;;;;;;38.93;36.63;;;;;;;10.87;100.00;101024.59;5032916;28;20479;-46
2022/11/03 08:56:11;;;;;;;38.17;35.50;;;;;;;11.00;100.00;101016.72;5032757;28;20941;-47
2022/11/03 08:58:41;;;;;;;39.00;36.90;;;;;;;11.11;100.00;101018.03;5032104;28;20470;-46
2022/11/03 09:01:09;;;;;;;39.07;36.70;;;;;;;11.17;100.00;101024.47;5032629;28;20474;-53
2022/11/03 09:03:38;;;;;;;38.57;36.13;;;;;;;11.26;100.00;101034.78;5032662;28;20872;-52
2022/11/03 09:06:07;;;;;;;39.10;36.70;;;;;;;11.43;100.00;101036.16;5032422;28;20440;-53
2022/11/03 09:08:34;;;;;;;38.70;36.40;;;;;;;11.58;100.00;101038.72;5032159;28;20484;-54
2022/11/03 09:11:23;;;;;;;37.73;35.60;;;;;;;11.68;100.00;101035.72;5032176;28;20506;-51
2022/11/03 09:13:51;;;;;;;38.03;35.93;;;;;;;11.85;100.00;101034.38;5032605;28;20466;-49
2022/11/03 09:16:18;;;;;;;39.20;36.70;;;;;;;12.03;100.00;101029.34;5032449;28;20937;-53
2022/11/03 09:18:46;;;;;;;38.57;36.27;;;;;;;12.16;100.00;101024.84;5031947;28;20456;-53
2022/11/03 09:21:14;;;;;;;36.80;34.43;;;;;;;12.18;100.00;101017.44;5026763;28;20436;-54
2022/11/03 09:23:42;;;;;;;38.93;35.83;;;;;;;12.31;100.00;101024.69;5024520;28;20464;-51
2022/11/03 09:26:09;;;;;;;37.73;35.73;;;;;;;12.36;100.00;100998.19;5032425;28;20436;-49
2022/11/03 09:28:38;;;;;;;38.13;35.93;;;;;;;12.37;100.00;100999.81;5031791;28;20949;-52
2022/11/03 09:31:06;;;;;;;37.73;35.30;;;;;;;12.48;100.00;101007.28;5031769;28;20432;-47
2022/11/03 09:33:34;;;;;;;37.80;35.50;;;;;;;12.54;100.00;100998.44;5031819;28;21022;-50
2022/11/03 09:36:01;;;;;;;37.63;35.00;;;;;;;12.53;100.00;100995.97;5032033;28;20471;-46
2022/11/03 09:38:29;;;;;;;36.00;34.07;;;;;;;12.45;100.00;100991.63;5031581;28;20464;-48
2022/11/03 09:40:56;;;;;;;35.57;33.27;;;;;;;12.37;100.00;100981.09;5031966;28;20436;-49
2022/11/03 09:43:24;;;;;;;37.13;34.90;;;;;;;12.37;100.00;100990.97;5031998;28;20514;-47
2022/11/03 09:45:53;;;;;;;35.87;33.90;;;;;;;12.37;100.00;100970.41;5031884;28;20440;-47
2022/11/03 09:48:21;;;;;;;35.80;33.70;;;;;;;12.39;100.00;100968.38;5031380;28;20472;-49
2022/11/03 09:50:52;;;;;;;36.13;33.93;;;;;;;12.35;100.00;100963.63;5031421;28;21015;-50
2022/11/03 09:53:21;;;;;;;35.77;33.50;;;;;;;12.30;100.00;100963.41;5031987;28;20869;-52
2022/11/03 09:55:48;;;;;;;35.97;33.80;;;;;;;12.25;100.00;100955.16;5031779;28;20425;-53
2022/11/03 09:58:17;;;;;;;35.63;33.23;;;;;;;12.24;100.00;100951.69;5031486;28;20518;-48
2022/11/03 10:00:45;;;;;;;34.70;32.63;;;;;;;12.25;100.00;100950.63;5031553;28;20432;-47
2022/11/03 10:03:16;;;;;;;34.23;32.43;;;;;;;12.22;100.00;100945.69;5031539;28;20533;-52
2022/11/03 10:05:45;;;;;;;35.60;33.20;;;;;;;12.30;100.00;100945.53;5031859;28;20436;-50
2022/11/03 10:08:21;;;;;;;34.27;32.27;;;;;;;12.31;100.00;100939.13;5031341;28;20464;-47
2022/11/03 10:10:49;;;;;;;33.70;31.70;;;;;;;12.32;100.00;100948.81;5031581;28;20913;-47
2022/11/03 10:13:23;;;;;;;33.17;31.23;;;;;;;12.36;100.00;100950.06;5031509;28;20460;-52
2022/11/03 10:15:51;;;;;;;34.77;32.60;;;;;;;12.37;100.00;100942.84;5031468;28;20439;-52
2022/11/03 10:18:20;;;;;;;32.43;30.90;;;;;;;12.42;100.00;100941.22;5032867;28;20471;-51
2022/11/03 10:20:47;;;;;;;33.67;31.83;;;;;;;12.47;100.00;100937.94;5030329;28;20428;-54
2022/11/03 10:23:15;;;;;;;33.50;31.53;;;;;;;12.55;100.00;100948.41;5027375;28;20498;-52
2022/11/03 10:25:44;;;;;;;32.57;30.67;;;;;;;12.60;100.00;100941.44;5035626;28;20522;-54
2022/11/03 10:28:20;;;;;;;32.63;30.97;;;;;;;12.70;100.00;100949.88;5035069;28;20467;-49
2022/11/03 10:30:49;;;;;;;33.70;31.63;;;;;;;12.79;100.00;100947.81;5035409;28;20529;-53
2022/11/03 10:33:40;;;;;;;34.40;32.23;;;;;;;12.91;100.00;100943.50;5034990;28;20542;-54
2022/11/03 10:36:23;;;;;;;33.77;31.80;;;;;;;12.96;100.00;100941.00;5035392;28;20471;-50
2022/11/03 10:38:51;;;;;;;31.23;29.47;;;;;;;12.93;100.00;100933.41;5034894;28;20993;-48
2022/11/03 10:41:20;;;;;;;32.40;30.50;;;;;;;12.95;100.00;100939.38;5035300;28;20428;-46
2022/11/03 10:44:00;;;;;;;31.90;30.10;;;;;;;12.96;100.00;100927.63;5035309;28;20937;-50
2022/11/03 10:46:28;;;;;;;31.77;29.93;;;;;;;13.09;100.00;100930.34;5035322;28;20428;-48
2022/11/03 10:49:19;;;;;;;30.73;29.00;;;;;;;13.14;100.00;100935.09;5034609;28;20488;-49
2022/11/03 10:51:49;;;;;;;31.27;29.60;;;;;;;13.19;100.00;100920.03;5035023;28;20455;-52
2022/11/03 10:54:19;;;;;;;31.10;29.40;;;;;;;13.28;100.00;100928.66;5035130;28;20859;-49
2022/11/03 10:56:49;;;;;;;31.23;29.63;;;;;;;13.40;100.00;100924.31;5035263;28;20490;-51
2022/11/03 10:59:19;;;;;;;30.90;28.90;;;;;;;13.54;100.00;100919.72;5034468;28;20992;-50
2022/11/03 11:01:47;;;;;;;30.90;29.23;;;;;;;13.50;100.00;100913.94;5034869;28;20460;-54
2022/11/03 11:04:16;;;;;;;30.23;28.57;;;;;;;13.62;100.00;100912.25;5035052;28;20446;-52
2022/11/03 11:06:46;;;;;;;29.93;28.30;;;;;;;13.64;100.00;100907.53;5034929;28;20440;-53
2022/11/03 11:09:20;;;;;;;30.07;28.17;;;;;;;13.73;100.00;100908.09;5034418;28;20464;-52
2022/11/03 11:12:02;;;;;;;30.93;28.93;;;;;;;13.70;100.00;100895.13;5034468;28;20455;-49
2022/11/03 11:14:37;;;;;;;29.53;28.20;;;;;;;13.80;100.00;100899.00;5034785;28;20424;-54
2022/11/03 11:17:05;;;;;;;28.13;26.40;;;;;;;13.79;100.00;100894.69;5034908;28;20482;-52
2022/11/03 11:20:06;;;;;;;29.20;27.70;;;;;;;13.82;100.00;100880.03;5034093;28;20464;-53
2022/11/03 11:22:35;;;;;;;28.03;26.43;;;;;;;13.75;100.00;100879.22;5024830;28;20452;-49
2022/11/03 11:25:04;;;;;;;29.80;28.10;;;;;;;13.82;100.00;100882.72;5034591;28;20481;-50
2022/11/03 11:27:57;;;;;;;28.27;26.77;;;;;;;13.75;100.00;100860.47;5033950;28;20953;-48
2022/11/03 11:31:01;;;;;;;27.80;26.43;;;;;;;13.75;100.00;100869.34;5034060;28;20475;-54
2022/11/03 11:33:34;;;;;;;26.73;25.53;;;;;;;13.84;100.00;100870.72;5034288;28;20510;-49
2022/11/03 11:36:26;;;;;;;27.37;25.37;;;;;;;13.92;100.00;100852.75;5034396;28;20506;-51
2022/11/03 11:39:00;;;;;;;26.90;25.43;;;;;;;14.05;100.00;100853.47;5033841;28;20526;-49
2022/11/03 11:42:09;;;;;;;27.43;25.73;;;;;;;14.11;100.00;100841.06;5034211;28;20482;-52